createdAt,value
2022-08-30T00:00:21.214Z,0.30
2022-08-30T00:02:49.192Z,0.20
2022-08-30T00:05:18.704Z,0.13
2022-08-30T00:07:46.543Z,0.13
2022-08-30T00:10:14.577Z,0.10
2022-08-30T00:12:43.508Z,0.30
2022-08-30T00:15:13.091Z,0.20
2022-08-30T00:17:41.953Z,0.17
2022-08-30T00:20:12.339Z,0.10
2022-08-30T00:22:41.703Z,0.20
2022-08-30T00:25:10.105Z,0.30
2022-08-30T00:27:37.916Z,0.10
2022-08-30T00:30:07.460Z,0.20
2022-08-30T00:32:35.283Z,0.20
2022-08-30T00:35:03.312Z,0.20
2022-08-30T00:37:31.208Z,0.20
2022-08-30T00:40:00.590Z,0.20
2022-08-30T00:42:28.660Z,0.40
2022-08-30T00:44:56.500Z,0.30
2022-08-30T00:47:24.312Z,0.30
2022-08-30T00:49:57.885Z,0.37
2022-08-30T00:52:25.751Z,0.30
2022-08-30T00:54:54.158Z,0.30
2022-08-30T00:57:23.385Z,0.20
2022-08-30T00:59:51.747Z,0.10
2022-08-30T01:02:23.810Z,0.20
2022-08-30T01:04:52.589Z,0.17
2022-08-30T01:07:20.469Z,0.30
2022-08-30T01:09:48.429Z,0.30
2022-08-30T01:12:17.385Z,0.27
2022-08-30T01:14:48.556Z,0.20
2022-08-30T01:17:17.383Z,0.20
2022-08-30T01:19:51.474Z,0.30
2022-08-30T01:22:27.966Z,0.40
2022-08-30T01:25:00.411Z,0.40
2022-08-30T01:27:30.384Z,0.40
2022-08-30T01:29:59.947Z,0.40
2022-08-30T01:32:29.993Z,0.40
2022-08-30T01:34:58.482Z,0.40
2022-08-30T01:37:29.993Z,0.30
2022-08-30T01:39:59.436Z,0.57
2022-08-30T01:42:27.953Z,0.33
2022-08-30T01:44:56.088Z,0.40
2022-08-30T01:47:24.110Z,0.40
2022-08-30T01:49:52.243Z,0.50
2022-08-30T01:52:20.212Z,0.40
2022-08-30T01:54:49.175Z,0.47
2022-08-30T01:57:21.067Z,0.50
2022-08-30T01:59:50.312Z,0.57
2022-08-30T02:02:20.939Z,0.40
2022-08-30T02:04:48.931Z,0.60
2022-08-30T02:07:17.203Z,0.63
2022-08-30T02:09:46.117Z,0.40
2022-08-30T02:12:14.506Z,0.40
2022-08-30T02:14:44.022Z,0.40
2022-08-30T02:17:14.020Z,0.50
2022-08-30T02:19:42.743Z,0.30
2022-08-30T02:22:10.865Z,0.33
2022-08-30T02:24:38.864Z,0.40
2022-08-30T02:27:07.218Z,0.40
2022-08-30T02:29:35.296Z,0.50
2022-08-30T02:32:05.151Z,0.50
2022-08-30T02:34:33.261Z,0.60
2022-08-30T02:37:01.411Z,0.50
2022-08-30T02:39:29.332Z,0.40
2022-08-30T02:41:57.924Z,0.40
2022-08-30T02:44:25.726Z,0.40
2022-08-30T02:46:53.652Z,0.50
2022-08-30T02:49:33.291Z,0.50
2022-08-30T02:52:02.018Z,0.40
2022-08-30T02:54:32.431Z,0.60
2022-08-30T02:57:03.073Z,0.30
2022-08-30T02:59:31.307Z,0.30
2022-08-30T03:01:59.161Z,0.40
2022-08-30T03:04:28.375Z,0.30
2022-08-30T03:06:56.459Z,0.40
2022-08-30T03:09:24.294Z,0.50
2022-08-30T03:11:52.137Z,0.40
2022-08-30T03:14:19.978Z,0.40
2022-08-30T03:16:47.873Z,0.30
2022-08-30T03:19:15.857Z,0.33
2022-08-30T03:21:45.144Z,0.40
2022-08-30T03:24:13.597Z,0.20
2022-08-30T03:26:46.055Z,0.50
2022-08-30T03:29:14.359Z,0.40
2022-08-30T03:31:52.431Z,0.43
2022-08-30T03:34:21.998Z,0.50
2022-08-30T03:36:52.767Z,0.50
2022-08-30T03:39:22.475Z,0.40
2022-08-30T03:41:50.379Z,0.37
2022-08-30T03:44:19.757Z,0.37
2022-08-30T03:46:47.568Z,0.50
2022-08-30T03:49:15.644Z,0.50
2022-08-30T03:51:43.785Z,0.50
2022-08-30T03:54:13.010Z,0.43
2022-08-30T03:56:41.279Z,0.40
2022-08-30T03:59:09.140Z,0.60
2022-08-30T04:01:37.080Z,0.80
2022-08-30T04:04:05.065Z,0.57
2022-08-30T04:06:33.355Z,0.70
2022-08-30T04:09:01.663Z,0.50
2022-08-30T04:11:31.207Z,0.50
2022-08-30T04:13:58.992Z,0.50
2022-08-30T04:16:27.010Z,0.70
2022-08-30T04:18:54.907Z,0.50
2022-08-30T04:21:22.894Z,0.70
2022-08-30T04:23:50.804Z,0.70
2022-08-30T04:26:18.600Z,0.70
2022-08-30T04:28:47.799Z,0.90
2022-08-30T04:31:17.644Z,0.90
2022-08-30T04:33:46.118Z,0.80
2022-08-30T04:36:14.067Z,0.90
2022-08-30T04:38:43.306Z,0.90
2022-08-30T04:41:13.167Z,0.77
2022-08-30T04:43:41.248Z,1.10
2022-08-30T04:46:10.700Z,0.77
2022-08-30T04:48:39.449Z,1.03
2022-08-30T04:51:08.421Z,1.13
2022-08-30T04:53:36.715Z,1.30
2022-08-30T04:56:08.738Z,1.13
2022-08-30T04:58:36.685Z,1.20
2022-08-30T05:01:04.741Z,1.07
2022-08-30T05:03:33.928Z,1.20
2022-08-30T05:06:01.686Z,1.73
2022-08-30T05:08:29.498Z,1.30
2022-08-30T05:10:57.280Z,1.20
2022-08-30T05:13:34.978Z,1.10
2022-08-30T05:16:05.191Z,1.03
2022-08-30T05:18:34.465Z,1.17
2022-08-30T05:21:10.211Z,0.97
2022-08-30T05:23:41.162Z,1.00
2022-08-30T05:26:15.029Z,1.00
2022-08-30T05:28:43.111Z,1.20
2022-08-30T05:31:16.358Z,0.90
2022-08-30T05:33:46.080Z,1.00
2022-08-30T05:36:19.630Z,0.90
2022-08-30T05:38:47.957Z,0.97
2022-08-30T05:41:16.113Z,1.10
2022-08-30T05:43:46.343Z,1.00
2022-08-30T05:46:19.372Z,0.77
2022-08-30T05:48:49.396Z,1.00
2022-08-30T05:51:20.315Z,0.90
2022-08-30T05:53:49.517Z,1.03
2022-08-30T05:56:19.455Z,0.90
2022-08-30T05:58:48.416Z,0.93
2022-08-30T06:01:23.317Z,1.10
2022-08-30T06:03:52.777Z,0.80
2022-08-30T06:06:22.066Z,1.03
2022-08-30T06:08:50.709Z,0.90
2022-08-30T06:11:21.678Z,0.80
2022-08-30T06:13:50.750Z,0.90
2022-08-30T06:16:22.041Z,0.80
2022-08-30T06:18:51.806Z,0.70
2022-08-30T06:21:25.427Z,1.17
2022-08-30T06:23:53.686Z,0.87
2022-08-30T06:26:22.627Z,0.90
2022-08-30T06:28:51.955Z,0.90
2022-08-30T06:31:22.239Z,1.13
2022-08-30T06:33:51.121Z,1.00
2022-08-30T06:36:23.994Z,0.90
2022-08-30T06:38:54.396Z,0.80
2022-08-30T06:41:25.145Z,0.80
2022-08-30T06:43:54.365Z,0.97
2022-08-30T06:46:25.619Z,0.80
2022-08-30T06:48:53.622Z,0.80
2022-08-30T06:51:27.609Z,0.80
2022-08-30T06:53:55.785Z,0.60
2022-08-30T06:56:27.389Z,0.80
2022-08-30T06:58:55.876Z,0.90
2022-08-30T07:01:32.672Z,0.80
2022-08-30T07:04:01.828Z,0.70
2022-08-30T07:06:31.720Z,0.77
2022-08-30T07:08:59.878Z,0.87
2022-08-30T07:11:31.853Z,0.80
2022-08-30T07:14:00.328Z,0.60
2022-08-30T07:16:28.484Z,0.40
2022-08-30T07:18:59.001Z,0.60
2022-08-30T07:21:30.227Z,0.60
2022-08-30T07:24:01.403Z,0.53
2022-08-30T07:26:33.678Z,0.50
2022-08-30T07:29:03.535Z,0.60
2022-08-30T07:31:33.143Z,0.80
2022-08-30T07:34:01.213Z,0.80
2022-08-30T07:36:29.229Z,0.60
2022-08-30T07:38:57.492Z,0.67
2022-08-30T07:41:29.162Z,0.70
2022-08-30T07:43:57.777Z,0.67
2022-08-30T07:46:26.512Z,0.83
2022-08-30T07:48:55.266Z,0.97
2022-08-30T07:51:27.050Z,0.63
2022-08-30T07:53:56.122Z,0.60
2022-08-30T07:56:25.799Z,0.60
2022-08-30T07:58:54.567Z,0.60
2022-08-30T08:01:23.933Z,0.80
2022-08-30T08:03:52.012Z,0.80
2022-08-30T08:06:21.601Z,0.77
2022-08-30T08:08:49.664Z,0.80
2022-08-30T08:11:20.769Z,0.90
2022-08-30T08:13:53.945Z,1.00
2022-08-30T08:16:23.458Z,0.70
2022-08-30T08:18:51.446Z,0.60
2022-08-30T08:21:19.409Z,1.40
2022-08-30T08:23:47.223Z,0.77
2022-08-30T08:26:15.134Z,0.90
2022-08-30T08:28:42.974Z,0.80
2022-08-30T08:31:17.768Z,0.97
2022-08-30T08:33:45.907Z,0.80
2022-08-30T08:36:13.737Z,0.80
2022-08-30T08:38:42.154Z,0.60
2022-08-30T08:41:20.680Z,0.70
2022-08-30T08:43:48.665Z,0.60
2022-08-30T08:46:26.390Z,0.67
2022-08-30T08:49:00.680Z,0.60
2022-08-30T08:51:49.893Z,0.67
2022-08-30T08:54:23.906Z,0.60
2022-08-30T08:56:52.291Z,0.80
2022-08-30T08:59:20.320Z,0.80
2022-08-30T09:01:50.947Z,0.70
2022-08-30T09:04:25.006Z,0.80
2022-08-30T09:06:56.660Z,0.70
2022-08-30T09:09:29.002Z,0.80
2022-08-30T09:11:57.178Z,0.90
2022-08-30T09:14:30.026Z,1.00
2022-08-30T09:17:03.227Z,1.07
2022-08-30T09:19:41.962Z,1.10
2022-08-30T09:22:26.474Z,1.00
2022-08-30T09:24:57.016Z,0.93
2022-08-30T09:27:27.988Z,0.90
2022-08-30T09:29:59.117Z,1.10
2022-08-30T09:32:32.776Z,1.03
2022-08-30T09:35:00.947Z,0.80
2022-08-30T09:37:36.378Z,0.73
2022-08-30T09:40:13.043Z,0.80
2022-08-30T09:42:41.289Z,0.60
2022-08-30T09:45:21.304Z,0.60
2022-08-30T09:47:50.482Z,0.50
2022-08-30T09:50:24.092Z,0.70
2022-08-30T09:53:01.688Z,0.70
2022-08-30T09:55:47.311Z,0.90
2022-08-30T09:58:29.345Z,0.60
2022-08-30T10:01:06.174Z,0.50
2022-08-30T10:03:40.459Z,0.50
2022-08-30T10:06:23.679Z,0.90
2022-08-30T10:09:03.671Z,0.60
2022-08-30T10:11:40.997Z,0.30
2022-08-30T10:14:36.601Z,0.40
2022-08-30T10:17:13.038Z,0.63
2022-08-30T10:19:58.719Z,0.80
2022-08-30T10:22:31.989Z,0.80
2022-08-30T10:25:08.238Z,0.57
2022-08-30T10:27:42.460Z,0.60
2022-08-30T10:30:13.953Z,0.50
2022-08-30T10:32:47.639Z,0.60
2022-08-30T10:35:19.792Z,0.60
2022-08-30T10:37:51.550Z,0.60
2022-08-30T10:40:44.669Z,0.70
2022-08-30T10:43:21.664Z,0.80
2022-08-30T10:45:53.505Z,0.60
2022-08-30T10:48:26.699Z,0.67
2022-08-30T10:50:59.925Z,0.63
2022-08-30T10:53:33.901Z,0.80
2022-08-30T10:56:04.970Z,0.77
2022-08-30T10:58:33.514Z,0.80
2022-08-30T11:01:13.969Z,0.80
2022-08-30T11:04:22.885Z,0.90
2022-08-30T11:07:05.002Z,0.80
2022-08-30T11:09:52.403Z,0.70
2022-08-30T11:12:34.612Z,0.83
2022-08-30T11:15:15.809Z,0.50
2022-08-30T11:17:48.565Z,0.70
2022-08-30T11:20:30.835Z,0.73
2022-08-30T11:23:33.114Z,0.50
2022-08-30T11:26:04.417Z,0.60
2022-08-30T11:29:01.230Z,0.50
2022-08-30T11:31:35.204Z,0.67
2022-08-30T11:34:03.518Z,0.52
2022-08-30T11:37:03.678Z,0.70
2022-08-30T11:39:56.363Z,0.80
2022-08-30T11:42:31.036Z,0.90
2022-08-30T11:45:36.312Z,0.65
2022-08-30T11:48:07.450Z,0.70
2022-08-30T11:50:40.650Z,0.60
2022-08-30T11:53:21.877Z,0.60
2022-08-30T11:56:00.802Z,0.60
2022-08-30T11:58:43.963Z,0.57
2022-08-30T12:01:42.060Z,0.57
2022-08-30T12:04:15.013Z,0.65
2022-08-30T12:06:53.577Z,0.70
2022-08-30T12:10:02.966Z,0.75
2022-08-30T12:12:54.629Z,1.15
2022-08-30T12:15:48.808Z,1.05
2022-08-30T12:18:29.643Z,1.10
2022-08-30T12:21:02.457Z,1.00
2022-08-30T12:23:44.502Z,0.90
2022-08-30T12:26:20.429Z,0.90
2022-08-30T12:28:51.347Z,1.10
2022-08-30T12:31:22.320Z,0.98
2022-08-30T12:33:55.000Z,0.70
2022-08-30T12:36:36.173Z,0.77
2022-08-30T12:39:09.779Z,0.47
2022-08-30T12:41:43.458Z,0.90
2022-08-30T12:44:17.674Z,0.70
2022-08-30T12:46:49.424Z,0.80
2022-08-30T12:49:19.326Z,0.57
2022-08-30T12:51:47.855Z,0.82
2022-08-30T12:54:21.866Z,0.80
2022-08-30T12:57:14.056Z,0.60
2022-08-30T12:59:59.159Z,0.60
2022-08-30T13:02:29.965Z,0.60
2022-08-30T13:04:59.082Z,0.50
2022-08-30T13:07:34.093Z,0.82
2022-08-30T13:10:19.893Z,0.90
2022-08-30T13:13:05.473Z,0.90
2022-08-30T13:15:42.080Z,0.77
2022-08-30T13:18:30.602Z,1.02
2022-08-30T13:21:12.255Z,1.10
2022-08-30T13:23:40.539Z,0.88
2022-08-30T13:26:09.267Z,1.00
2022-08-30T13:28:48.863Z,0.73
2022-08-30T13:31:18.563Z,0.80
2022-08-30T13:33:47.644Z,0.50
2022-08-30T13:36:15.872Z,0.80
2022-08-30T13:38:43.851Z,0.57
2022-08-30T13:41:12.153Z,0.40
2022-08-30T13:46:29.287Z,0.50
2022-08-30T13:49:03.252Z,0.60
2022-08-30T13:51:31.300Z,0.60
2022-08-30T13:54:00.741Z,0.52
2022-08-30T13:56:31.732Z,0.60
2022-08-30T13:58:59.943Z,0.70
2022-08-30T14:02:07.559Z,0.70
2022-08-30T14:04:21.831Z,0.50
2022-08-30T14:09:38.199Z,0.77
2022-08-30T14:12:06.571Z,0.68
2022-08-30T14:14:42.615Z,0.90
2022-08-30T14:17:12.782Z,0.80
2022-08-30T14:19:40.859Z,0.70
2022-08-30T14:22:08.660Z,1.00
2022-08-30T14:24:36.741Z,0.77
2022-08-30T14:27:04.639Z,0.60
2022-08-30T14:29:32.534Z,0.50
2022-08-30T14:32:00.615Z,0.63
2022-08-30T14:34:30.055Z,0.50
2022-08-30T14:36:58.283Z,0.60
2022-08-30T14:39:27.227Z,0.90
2022-08-30T14:41:56.811Z,0.65
2022-08-30T14:44:25.711Z,0.60
2022-08-30T14:46:53.936Z,0.50
2022-08-30T14:49:22.426Z,0.50
2022-08-30T14:51:52.782Z,0.60
2022-08-30T14:54:22.597Z,0.50
2022-08-30T14:56:53.868Z,0.50
2022-08-30T14:59:22.486Z,0.50
2022-08-30T15:01:50.321Z,0.38
2022-08-30T15:04:19.039Z,0.38
2022-08-30T15:06:50.143Z,0.57
2022-08-30T15:09:23.659Z,0.32
2022-08-30T15:11:53.521Z,0.57
2022-08-30T15:14:23.076Z,0.50
2022-08-30T15:16:51.134Z,0.40
2022-08-30T15:19:18.995Z,0.40
2022-08-30T15:21:49.165Z,0.40
2022-08-30T15:24:29.534Z,0.40
2022-08-30T15:26:59.781Z,0.50
2022-08-30T15:29:28.374Z,0.38
2022-08-30T15:32:00.411Z,0.60
2022-08-30T15:34:28.619Z,0.40
2022-08-30T15:36:57.911Z,0.50
2022-08-30T15:39:27.311Z,0.38
2022-08-30T15:42:00.332Z,0.40
2022-08-30T15:44:29.353Z,0.40
2022-08-30T15:46:57.254Z,0.40
2022-08-30T15:49:25.831Z,0.50
2022-08-30T15:51:54.711Z,0.50
2022-08-30T15:54:24.388Z,0.40
2022-08-30T15:56:59.572Z,0.60
2022-08-30T15:59:28.548Z,0.65
2022-08-30T16:01:57.245Z,0.80
2022-08-30T16:04:25.684Z,0.45
2022-08-30T16:06:54.218Z,0.52
2022-08-30T16:09:22.671Z,0.60
2022-08-30T16:11:51.230Z,0.20
2022-08-30T16:14:20.434Z,0.40
2022-08-30T16:16:48.500Z,0.50
2022-08-30T16:19:16.430Z,0.50
2022-08-30T16:21:44.275Z,0.65
2022-08-30T16:24:14.068Z,0.50
2022-08-30T16:26:43.316Z,0.45
2022-08-30T16:29:13.201Z,0.50
2022-08-30T16:31:44.767Z,0.70
2022-08-30T16:34:13.659Z,0.57
2022-08-30T16:36:41.499Z,0.57
2022-08-30T16:39:12.724Z,0.68
2022-08-30T16:41:41.472Z,0.90
2022-08-30T16:44:09.296Z,0.70
2022-08-30T16:46:40.342Z,0.73
2022-08-30T16:49:11.025Z,0.82
2022-08-30T16:51:39.482Z,0.75
2022-08-30T16:54:09.027Z,0.80
2022-08-30T16:56:37.935Z,0.77
2022-08-30T16:59:11.067Z,0.88
2022-08-30T17:01:42.320Z,0.68
2022-08-30T17:04:15.757Z,0.70
2022-08-30T17:06:46.605Z,0.60
2022-08-30T17:09:15.065Z,0.75
2022-08-30T17:11:43.517Z,0.70
2022-08-30T17:14:11.733Z,0.77
2022-08-30T17:16:41.396Z,0.60
2022-08-30T17:19:11.725Z,0.90
2022-08-30T17:21:39.587Z,0.70
2022-08-30T17:24:07.637Z,0.80
2022-08-30T17:26:37.588Z,0.90
2022-08-30T17:29:06.264Z,0.77
2022-08-30T17:31:35.875Z,0.60
2022-08-30T17:34:06.325Z,0.70
2022-08-30T17:36:37.334Z,0.70
2022-08-30T17:39:10.827Z,0.70
2022-08-30T17:41:40.031Z,0.60
2022-08-30T17:44:13.593Z,0.57
2022-08-30T17:46:41.670Z,0.57
2022-08-30T17:49:10.585Z,0.60
2022-08-30T17:51:42.749Z,0.37
2022-08-30T17:54:12.108Z,0.60
2022-08-30T17:56:40.232Z,0.57
2022-08-30T17:59:09.174Z,0.50
2022-08-30T18:01:37.801Z,0.40
2022-08-30T18:04:06.482Z,0.40
2022-08-30T18:06:34.674Z,0.30
2022-08-30T18:09:04.455Z,0.57
2022-08-30T18:11:36.572Z,0.47
2022-08-30T18:14:05.394Z,0.50
2022-08-30T18:16:33.570Z,0.60
2022-08-30T18:19:03.569Z,0.50
2022-08-30T18:21:31.604Z,0.50
2022-08-30T18:23:59.436Z,0.83
2022-08-30T18:26:28.662Z,0.47
2022-08-30T18:28:57.014Z,0.50
2022-08-30T18:31:24.859Z,0.50
2022-08-30T18:33:52.946Z,0.40
2022-08-30T18:36:20.858Z,0.50
2022-08-30T18:38:50.086Z,0.60
2022-08-30T18:41:18.076Z,0.50
2022-08-30T18:43:47.281Z,0.60
2022-08-30T18:46:18.133Z,0.60
2022-08-30T18:48:47.487Z,0.70
2022-08-30T18:51:17.755Z,0.50
2022-08-30T18:53:47.188Z,0.50
2022-08-30T18:56:17.257Z,0.60
2022-08-30T18:58:47.574Z,0.90
2022-08-30T19:01:19.444Z,0.70
2022-08-30T19:03:50.056Z,0.80
2022-08-30T19:06:20.474Z,0.50
2022-08-30T19:08:49.293Z,0.50
2022-08-30T19:11:17.123Z,0.53
2022-08-30T19:13:44.905Z,0.50
2022-08-30T19:16:14.301Z,0.57
2022-08-30T19:18:42.329Z,0.70
2022-08-30T19:21:13.715Z,0.60
2022-08-30T19:23:42.280Z,0.50
2022-08-30T19:26:10.772Z,0.57
2022-08-30T19:28:38.885Z,0.50
2022-08-30T19:31:07.243Z,0.60
2022-08-30T19:33:36.811Z,0.60
2022-08-30T19:36:06.846Z,0.57
2022-08-30T19:38:35.665Z,0.50
2022-08-30T19:41:04.432Z,0.37
2022-08-30T19:43:32.928Z,0.60
2022-08-30T19:46:01.352Z,0.80
2022-08-30T19:48:32.757Z,0.60
2022-08-30T19:51:08.011Z,0.60
2022-08-30T19:53:36.778Z,0.53
2022-08-30T19:56:05.415Z,0.67
2022-08-30T19:58:33.478Z,0.60
2022-08-30T20:01:11.608Z,0.50
2022-08-30T20:03:48.217Z,0.53
2022-08-30T20:06:21.255Z,0.50
2022-08-30T20:08:49.053Z,0.50
2022-08-30T20:11:20.870Z,0.50
2022-08-30T20:13:49.285Z,0.50
2022-08-30T20:16:18.278Z,0.40
2022-08-30T20:18:48.906Z,0.33
2022-08-30T20:21:17.253Z,0.47
2022-08-30T20:23:47.085Z,0.37
2022-08-30T20:26:15.018Z,0.40
2022-08-30T20:28:43.377Z,0.40
2022-08-30T20:31:11.851Z,0.30
2022-08-30T20:33:41.249Z,0.30
2022-08-30T20:36:11.411Z,0.40
2022-08-30T20:38:40.457Z,0.40
2022-08-30T20:41:12.819Z,0.30
2022-08-30T20:43:40.715Z,0.47
2022-08-30T20:46:09.967Z,0.30
2022-08-30T20:48:38.178Z,0.50
2022-08-30T20:51:09.983Z,0.40
2022-08-30T20:53:38.160Z,0.33
2022-08-30T20:56:06.489Z,0.47
2022-08-30T20:58:35.671Z,0.50
2022-08-30T21:01:03.559Z,0.50
2022-08-30T21:03:32.796Z,0.43
2022-08-30T21:06:00.790Z,0.33
2022-08-30T21:08:28.665Z,0.50
2022-08-30T21:10:56.552Z,0.57
2022-08-30T21:13:24.500Z,0.60
2022-08-30T21:15:55.100Z,0.43
2022-08-30T21:18:29.781Z,0.47
2022-08-30T21:20:57.819Z,0.50
2022-08-30T21:23:25.754Z,0.40
2022-08-30T21:25:54.650Z,0.50
2022-08-30T21:28:23.659Z,0.50
2022-08-30T21:31:03.784Z,0.50
2022-08-30T21:33:32.990Z,0.60
2022-08-30T21:36:18.721Z,0.40
2022-08-30T21:38:46.695Z,0.63
2022-08-30T21:41:15.051Z,0.50
2022-08-30T21:43:42.867Z,0.30
2022-08-30T21:46:11.523Z,0.47
2022-08-30T21:48:40.829Z,0.53
2022-08-30T21:51:10.109Z,0.60
2022-08-30T21:53:38.384Z,0.67
2022-08-30T21:56:13.158Z,0.60
2022-08-30T21:58:45.908Z,0.50
2022-08-30T22:01:17.469Z,0.50
2022-08-30T22:03:47.408Z,0.50
2022-08-30T22:06:16.176Z,0.50
2022-08-30T22:08:46.061Z,0.40
2022-08-30T22:11:16.793Z,0.60
2022-08-30T22:13:48.067Z,0.57
2022-08-30T22:16:16.937Z,0.33
2022-08-30T22:18:46.589Z,0.50
2022-08-30T22:21:16.924Z,0.43
2022-08-30T22:23:45.082Z,0.43
2022-08-30T22:30:07.680Z,0.30
2022-08-30T22:32:35.305Z,0.47
2022-08-30T22:35:04.822Z,0.50
2022-08-30T22:37:32.443Z,0.30
2022-08-30T22:40:00.107Z,0.43
2022-08-30T22:42:27.781Z,0.40
2022-08-30T22:44:55.402Z,0.40
2022-08-30T22:47:23.032Z,0.50
2022-08-30T22:49:50.946Z,0.53
2022-08-30T22:52:21.261Z,0.53
2022-08-30T22:54:52.870Z,0.40
2022-08-30T22:57:20.496Z,0.47
2022-08-30T22:59:48.655Z,0.40
2022-08-30T23:02:16.278Z,0.50
2022-08-30T23:04:44.020Z,0.30
2022-08-30T23:07:11.911Z,0.50
2022-08-30T23:09:40.908Z,0.33
2022-08-30T23:12:08.706Z,0.40
2022-08-30T23:14:36.325Z,0.60
2022-08-30T23:17:04.088Z,0.30
2022-08-30T23:19:31.822Z,0.40
2022-08-30T23:21:59.514Z,0.40
2022-08-30T23:24:49.124Z,0.40
2022-08-30T23:27:36.009Z,0.40
2022-08-30T23:30:21.526Z,0.50
2022-08-30T23:33:07.083Z,0.43
2022-08-30T23:35:52.264Z,0.33
2022-08-30T23:38:37.449Z,0.40
2022-08-30T23:41:22.927Z,0.60
2022-08-30T23:44:20.930Z,0.40
2022-08-30T23:47:06.160Z,0.50
2022-08-30T23:49:51.398Z,0.30
2022-08-30T23:52:36.852Z,0.50
2022-08-30T23:55:22.947Z,0.50
2022-08-30T23:58:08.403Z,0.50
